createdAt,value
2018-12-15T00:00:31.736Z,101358.42
2018-12-15T00:03:05.443Z,101361.56
2018-12-15T00:05:43.919Z,101367.64
2018-12-15T00:08:15.779Z,101361.67
2018-12-15T00:10:54.354Z,101368.27
2018-12-15T00:13:31.215Z,101365.97
2018-12-15T00:16:08.010Z,101367.67
2018-12-15T00:18:43.331Z,101369.06
2018-12-15T00:21:14.515Z,101368.82
2018-12-15T00:24:02.387Z,101375.78
2018-12-15T00:26:43.716Z,101372.41
2018-12-15T00:29:28.731Z,101368.20
2018-12-15T00:32:08.120Z,101369.37
2018-12-15T00:34:42.444Z,101365.98
2018-12-15T00:37:16.746Z,101365.09
2018-12-15T00:39:49.457Z,101378.56
2018-12-15T00:42:35.210Z,101370.78
2018-12-15T00:45:05.367Z,101368.58
2018-12-15T00:47:36.455Z,101377.41
2018-12-15T00:50:07.875Z,101365.16
2018-12-15T00:52:52.999Z,101372.48
2018-12-15T00:55:24.502Z,101364.72
2018-12-15T00:57:57.420Z,101363.61
2018-12-15T01:00:29.325Z,101362.16
2018-12-15T01:05:49.603Z,101370.17
2018-12-15T01:08:19.867Z,101370.88
2018-12-15T01:10:51.502Z,101372.94
2018-12-15T01:13:27.662Z,101374.05
2018-12-15T01:15:57.556Z,101367.48
2018-12-15T01:18:42.271Z,101373.09
2018-12-15T01:21:13.355Z,101372.98
2018-12-15T01:23:50.483Z,101376.45
2018-12-15T01:26:23.771Z,101378.27
2018-12-15T01:28:57.212Z,101381.84
2018-12-15T01:31:29.632Z,101384.34
2018-12-15T01:34:18.978Z,101381.97
2018-12-15T01:36:52.778Z,101390.36
2018-12-15T01:39:23.347Z,101388.80
2018-12-15T01:42:07.228Z,101388.38
2018-12-15T01:44:39.689Z,101388.20
2018-12-15T01:47:11.865Z,101396.49
2018-12-15T01:49:55.224Z,101399.29
2018-12-15T01:52:29.429Z,101388.38
2018-12-15T01:55:00.026Z,101388.45
2018-12-15T01:57:33.924Z,101389.14
2018-12-15T02:00:09.005Z,101394.25
2018-12-15T02:02:48.560Z,101392.41
2018-12-15T02:05:19.950Z,101388.91
2018-12-15T02:07:52.691Z,101404.77
2018-12-15T02:10:23.974Z,101394.36
2018-12-15T02:13:00.565Z,101393.09
2018-12-15T02:15:31.812Z,101398.61
2018-12-15T02:18:02.637Z,101400.75
2018-12-15T02:20:33.441Z,101404.48
2018-12-15T02:23:06.834Z,101411.20
2018-12-15T02:25:40.761Z,101408.12
2018-12-15T02:28:10.704Z,101408.77
2018-12-15T02:30:49.022Z,101406.65
2018-12-15T02:33:47.820Z,101406.56
2018-12-15T02:36:23.780Z,101408.81
2018-12-15T02:38:56.249Z,101409.27
2018-12-15T02:41:30.887Z,101408.33
2018-12-15T02:44:09.879Z,101411.95
2018-12-15T02:46:45.747Z,101406.42
2018-12-15T02:49:17.131Z,101407.70
2018-12-15T02:51:50.193Z,101402.63
2018-12-15T02:54:30.457Z,101404.84
2018-12-15T02:57:03.942Z,101404.71
2018-12-15T02:59:39.524Z,101402.72
2018-12-15T03:02:26.851Z,101402.92
2018-12-15T03:04:57.828Z,101404.41
2018-12-15T03:07:28.447Z,101408.66
2018-12-15T03:09:58.671Z,101406.07
2018-12-15T03:12:40.039Z,101408.05
2018-12-15T03:15:19.162Z,101412.23
2018-12-15T03:17:50.736Z,101411.44
2018-12-15T03:20:20.543Z,101409.23
2018-12-15T03:23:06.698Z,101410.93
2018-12-15T03:25:43.312Z,101413.37
2018-12-15T03:28:18.921Z,101415.28
2018-12-15T03:31:07.433Z,101417.62
2018-12-15T03:33:43.171Z,101417.92
2018-12-15T03:36:25.999Z,101421.77
2018-12-15T03:39:12.564Z,101416.42
2018-12-15T03:41:57.957Z,101412.90
2018-12-15T03:44:36.105Z,101414.75
2018-12-15T03:50:30.648Z,101417.16
2018-12-15T03:53:19.703Z,101418.86
2018-12-15T03:56:05.348Z,101413.14
2018-12-15T03:58:54.813Z,101409.66
2018-12-15T04:01:39.274Z,101413.00
2018-12-15T04:07:24.931Z,101410.64
2018-12-15T04:09:59.245Z,101409.31
2018-12-15T04:12:34.023Z,101414.47
2018-12-15T04:15:04.234Z,101414.98
2018-12-15T04:17:35.668Z,101417.47
2018-12-15T04:20:09.390Z,101418.84
2018-12-15T04:22:42.750Z,101425.43
2018-12-15T04:25:12.628Z,101426.55
2018-12-15T04:27:43.833Z,101429.52
2018-12-15T04:30:16.061Z,101429.72
2018-12-15T04:33:02.731Z,101431.42
2018-12-15T04:35:32.572Z,101432.36
2018-12-15T04:38:03.651Z,101433.13
2018-12-15T04:40:34.720Z,101430.39
2018-12-15T04:43:08.264Z,101436.89
2018-12-15T04:45:40.921Z,101438.72
2018-12-15T04:48:11.576Z,101440.08
2018-12-15T04:50:41.741Z,101441.20
2018-12-15T04:53:15.494Z,101449.98
2018-12-15T04:55:45.161Z,101442.15
2018-12-15T04:58:15.054Z,101439.59
2018-12-15T05:00:44.948Z,101440.20
2018-12-15T05:03:26.779Z,101440.30
2018-12-15T05:06:20.486Z,101437.41
2018-12-15T05:12:36.012Z,101435.69
2018-12-15T05:15:21.057Z,101444.50
2018-12-15T05:18:04.938Z,101439.18
2018-12-15T05:20:36.522Z,101437.84
2018-12-15T05:23:11.682Z,101438.92
2018-12-15T05:25:58.802Z,101447.47
2018-12-15T05:28:34.653Z,101440.56
2018-12-15T05:31:16.526Z,101450.52
2018-12-15T05:33:47.683Z,101450.00
2018-12-15T05:36:18.163Z,101450.05
2018-12-15T05:38:49.064Z,101454.48
2018-12-15T05:41:18.775Z,101461.63
2018-12-15T05:43:54.539Z,101460.47
2018-12-15T05:46:24.649Z,101465.62
2018-12-15T05:48:55.479Z,101472.55
2018-12-15T05:51:26.125Z,101472.72
2018-12-15T05:53:59.399Z,101473.63
2018-12-15T05:56:29.739Z,101473.16
2018-12-15T05:58:59.542Z,101469.34
2018-12-15T06:01:29.457Z,101470.16
2018-12-15T06:04:02.659Z,101470.44
2018-12-15T06:06:32.545Z,101473.78
2018-12-15T06:09:03.500Z,101478.94
2018-12-15T06:11:33.524Z,101479.20
2018-12-15T06:14:07.706Z,101487.87
2018-12-15T06:16:37.750Z,101479.64
2018-12-15T06:19:07.968Z,101483.38
2018-12-15T06:21:39.062Z,101483.30
2018-12-15T06:24:09.860Z,101485.38
2018-12-15T06:26:44.103Z,101494.47
2018-12-15T06:29:19.104Z,101494.79
2018-12-15T06:31:50.023Z,101500.19
2018-12-15T06:34:20.825Z,101498.04
2018-12-15T06:36:51.110Z,101502.48
2018-12-15T06:39:23.098Z,101496.21
2018-12-15T06:41:56.051Z,101501.91
2018-12-15T06:44:25.850Z,101490.90
2018-12-15T06:46:56.523Z,101490.03
2018-12-15T06:49:27.341Z,101493.51
2018-12-15T06:51:59.784Z,101492.98
2018-12-15T06:54:29.469Z,101496.72
2018-12-15T06:57:00.119Z,101498.13
2018-12-15T06:59:30.074Z,101494.74
2018-12-15T07:02:05.395Z,101491.94
2018-12-15T07:04:35.307Z,101503.88
2018-12-15T07:07:10.877Z,101502.19
2018-12-15T07:19:40.790Z,101501.36
2018-12-15T07:55:01.391Z,101503.57
2018-12-15T07:57:32.762Z,101501.55
2018-12-15T08:00:02.810Z,101495.42
2018-12-15T08:02:39.766Z,101488.88
2018-12-15T08:05:09.971Z,101498.27
2018-12-15T08:07:40.412Z,101490.21
2018-12-15T08:10:10.274Z,101492.48
2018-12-15T08:12:50.178Z,101497.16
2018-12-15T08:15:20.191Z,101495.98
2018-12-15T08:17:50.601Z,101501.86
2018-12-15T08:20:20.414Z,101505.44
2018-12-15T08:22:53.813Z,101503.34
2018-12-15T08:25:24.189Z,101500.29
2018-12-15T08:27:54.346Z,101506.30
2018-12-15T08:30:24.475Z,101495.86
2018-12-15T08:35:52.684Z,101502.62
2018-12-15T08:38:24.113Z,101506.23
2018-12-15T08:40:56.807Z,101506.71
2018-12-15T08:43:34.016Z,101509.38
2018-12-15T08:46:19.503Z,101510.12
2018-12-15T08:48:50.339Z,101512.44
2018-12-15T08:51:21.289Z,101515.73
2018-12-15T08:53:52.463Z,101517.72
2018-12-15T08:56:41.556Z,101515.92
2018-12-15T08:59:12.527Z,101514.13
2018-12-15T09:01:43.628Z,101516.83
2018-12-15T09:11:01.723Z,101516.11
2018-12-15T09:14:05.223Z,101518.52
2018-12-15T09:16:44.808Z,101508.90
2018-12-15T09:19:23.302Z,101512.34
2018-12-15T09:22:11.112Z,101513.05
2018-12-15T09:24:36.554Z,101509.66
2018-12-15T09:27:10.470Z,101511.27
2018-12-15T09:29:43.315Z,101509.14
2018-12-15T09:32:22.356Z,101510.32
2018-12-15T09:34:59.308Z,101513.34
2018-12-15T09:37:29.104Z,101504.34
2018-12-15T09:39:59.376Z,101506.69
2018-12-15T09:42:37.495Z,101501.41
2018-12-15T09:45:12.988Z,101506.85
2018-12-15T09:47:52.726Z,101506.39
2018-12-15T09:50:27.341Z,101505.55
2018-12-15T09:53:06.625Z,101501.52
2018-12-15T09:55:37.245Z,101497.73
2018-12-15T09:58:11.466Z,101508.30
2018-12-15T10:00:41.793Z,101507.97
2018-12-15T10:03:18.053Z,101499.52
2018-12-15T10:05:47.967Z,101499.17
2018-12-15T10:08:18.008Z,101493.63
2018-12-15T10:10:48.016Z,101492.06
2018-12-15T10:13:32.779Z,101483.05
2018-12-15T10:16:20.789Z,101487.97
2018-12-15T10:18:54.475Z,101486.39
2018-12-15T10:21:38.822Z,101477.64
2018-12-15T10:24:08.612Z,101466.89
2018-12-15T10:26:40.235Z,101468.32
2018-12-15T10:29:15.175Z,101464.27
2018-12-15T10:31:50.214Z,101459.09
2018-12-15T10:34:19.858Z,101464.72
2018-12-15T10:36:49.923Z,101462.88
2018-12-15T10:39:19.867Z,101463.44
2018-12-15T10:41:51.446Z,101461.22
2018-12-15T10:44:35.172Z,101453.00
2018-12-15T10:47:06.796Z,101446.23
2018-12-15T10:49:40.285Z,101450.95
2018-12-15T10:52:25.413Z,101448.80
2018-12-15T10:54:57.602Z,101451.42
2018-12-15T10:57:30.653Z,101448.06
2018-12-15T11:00:00.930Z,101449.75
2018-12-15T11:02:37.814Z,101443.97
2018-12-15T11:05:08.501Z,101438.25
2018-12-15T11:07:44.763Z,101445.36
2018-12-15T11:10:16.105Z,101438.14
2018-12-15T11:12:52.525Z,101439.38
2018-12-15T11:15:24.840Z,101436.74
2018-12-15T11:17:56.895Z,101433.45
2018-12-15T11:20:29.573Z,101429.86
2018-12-15T11:23:30.949Z,101422.47
2018-12-15T11:26:06.300Z,101422.58
2018-12-15T11:28:38.448Z,101420.78
2018-12-15T11:31:13.870Z,101418.59
2018-12-15T11:33:48.498Z,101421.75
2018-12-15T11:36:19.497Z,101422.63
2018-12-15T11:38:51.380Z,101428.45
2018-12-15T11:41:21.072Z,101421.25
2018-12-15T11:43:56.341Z,101416.43
2018-12-15T11:46:26.985Z,101415.41
2018-12-15T11:48:56.903Z,101412.70
2018-12-15T11:51:27.332Z,101416.25
2018-12-15T11:54:12.889Z,101416.20
2018-12-15T11:56:44.506Z,101409.98
2018-12-15T11:59:17.092Z,101404.59
2018-12-15T12:01:53.132Z,101411.56
2018-12-15T12:04:23.823Z,101403.30
2018-12-15T12:06:53.642Z,101401.62
2018-12-15T12:09:23.443Z,101401.89
2018-12-15T12:11:57.126Z,101397.33
2018-12-15T12:14:27.259Z,101396.37
2018-12-15T12:16:56.852Z,101393.30
2018-12-15T12:19:27.604Z,101394.11
2018-12-15T12:22:03.280Z,101396.84
2018-12-15T12:24:33.249Z,101392.78
2018-12-15T12:27:10.783Z,101390.59
2018-12-15T12:29:45.850Z,101386.16
2018-12-15T12:32:35.839Z,101395.26
2018-12-15T12:35:11.347Z,101395.98
2018-12-15T12:37:41.348Z,101392.67
2018-12-15T12:40:11.048Z,101390.52
2018-12-15T12:42:44.398Z,101392.77
2018-12-15T12:45:15.018Z,101391.06
2018-12-15T12:47:45.547Z,101393.72
2018-12-15T12:50:15.541Z,101390.68
2018-12-15T12:52:48.766Z,101395.06
2018-12-15T12:55:19.937Z,101399.36
2018-12-15T12:57:50.516Z,101391.95
2018-12-15T13:00:22.172Z,101389.19
2018-12-15T13:02:55.080Z,101394.44
2018-12-15T13:05:36.097Z,101389.70
2018-12-15T13:08:07.229Z,101392.80
2018-12-15T13:10:38.972Z,101390.09
2018-12-15T13:13:24.028Z,101392.75
2018-12-15T13:15:55.170Z,101394.91
2018-12-15T13:18:26.866Z,101393.88
2018-12-15T13:21:05.252Z,101394.16
2018-12-15T13:23:39.182Z,101391.08
2018-12-15T13:26:18.656Z,101391.72
2018-12-15T13:28:53.379Z,101389.50
2018-12-15T13:31:30.984Z,101393.59
2018-12-15T13:34:13.036Z,101399.42
2018-12-15T13:36:43.597Z,101402.45
2018-12-15T13:39:14.001Z,101401.06
2018-12-15T13:41:49.546Z,101401.83
2018-12-15T13:44:48.336Z,101395.84
2018-12-15T13:47:20.632Z,101395.61
2018-12-15T13:49:51.745Z,101400.77
2018-12-15T13:52:27.010Z,101397.15
2018-12-15T13:55:03.541Z,101393.23
2018-12-15T13:57:34.203Z,101391.93
2018-12-15T14:00:06.614Z,101399.33
2018-12-15T14:02:47.011Z,101387.43
2018-12-15T14:05:19.214Z,101392.58
2018-12-15T14:07:53.219Z,101392.52
2018-12-15T14:13:10.158Z,101386.25
2018-12-15T14:15:41.886Z,101387.06
2018-12-15T14:18:17.230Z,101391.63
2018-12-15T14:20:47.519Z,101385.66
2018-12-15T14:23:32.439Z,101391.44
2018-12-15T14:26:06.248Z,101390.24
2018-12-15T14:28:36.005Z,101388.67
2018-12-15T14:31:06.351Z,101384.75
2018-12-15T14:33:43.012Z,101382.62
2018-12-15T14:36:13.031Z,101377.00
2018-12-15T14:38:42.843Z,101377.08
2018-12-15T14:41:18.943Z,101378.27
2018-12-15T14:44:00.038Z,101367.28
2018-12-15T14:46:34.353Z,101363.11
2018-12-15T14:52:22.410Z,101369.11
2018-12-15T14:55:04.968Z,101372.04
2018-12-15T14:57:43.680Z,101362.22
2018-12-15T15:03:12.595Z,101361.84
2018-12-15T15:08:33.174Z,101360.94
2018-12-15T15:11:29.202Z,101354.36
2018-12-15T15:14:20.204Z,101364.66
2018-12-15T15:17:00.174Z,101355.34
2018-12-15T15:19:34.801Z,101352.33
2018-12-15T15:22:31.570Z,101349.44
2018-12-15T15:25:22.454Z,101342.30
2018-12-15T15:28:10.847Z,101347.61
2018-12-15T15:30:59.684Z,101347.78
2018-12-15T15:40:15.674Z,101347.12
2018-12-15T15:43:02.770Z,101344.59
2018-12-15T15:45:52.170Z,101346.09
2018-12-15T16:03:02.664Z,101323.12
2018-12-15T16:09:16.307Z,101318.17
2018-12-15T16:11:50.413Z,101313.69
2018-12-15T16:14:27.434Z,101309.20
2018-12-15T16:17:00.636Z,101312.49
2018-12-15T16:19:41.413Z,101314.20
2018-12-15T16:22:20.141Z,101309.05
2018-12-15T16:25:03.400Z,101303.27
2018-12-15T16:27:40.848Z,101307.66
2018-12-15T16:31:31.045Z,101304.81
2018-12-15T16:34:50.903Z,101305.34
2018-12-15T16:40:51.287Z,101301.56
2018-12-15T16:43:31.569Z,101298.47
2018-12-15T16:46:22.919Z,101290.69
2018-12-15T16:49:09.660Z,101294.89
2018-12-15T16:51:41.993Z,101292.63
2018-12-15T16:54:14.603Z,101292.70
2018-12-15T16:56:44.818Z,101295.72
2018-12-15T17:15:42.655Z,101268.21
2018-12-15T17:18:26.554Z,101270.13
2018-12-15T17:20:59.928Z,101264.58
2018-12-15T17:23:36.878Z,101266.45
2018-12-15T17:26:13.661Z,101262.38
2018-12-15T17:28:53.608Z,101265.05
2018-12-15T17:31:27.424Z,101257.56
2018-12-15T17:37:08.124Z,101254.36
2018-12-15T17:39:40.018Z,101250.91
2018-12-15T17:42:26.905Z,101247.36
2018-12-15T17:51:03.284Z,101237.23
2018-12-15T17:53:40.256Z,101233.36
2018-12-15T17:56:14.579Z,101229.80
2018-12-15T17:58:46.114Z,101226.77
2018-12-15T18:01:16.383Z,101225.84
2018-12-15T18:03:51.870Z,101217.32
2018-12-15T18:06:21.580Z,101213.27
2018-12-15T18:08:52.320Z,101217.48
2018-12-15T18:11:42.729Z,101217.86
2018-12-15T18:17:31.614Z,101208.52
2018-12-15T18:20:09.897Z,101203.92
2018-12-15T18:22:41.365Z,101202.89
2018-12-15T18:25:15.886Z,101204.03
2018-12-15T18:27:56.830Z,101206.09
2018-12-15T18:30:34.374Z,101199.22
2018-12-15T18:33:04.237Z,101199.34
2018-12-15T18:35:34.259Z,101199.11
2018-12-15T18:38:05.195Z,101194.14
2018-12-15T18:40:38.176Z,101195.87
2018-12-15T18:43:14.088Z,101191.68
2018-12-15T18:46:07.831Z,101192.78
2018-12-15T18:48:43.866Z,101186.31
2018-12-15T18:51:19.089Z,101181.73
2018-12-15T18:54:00.840Z,101176.25
2018-12-15T18:56:36.303Z,101178.10
2018-12-15T18:59:08.417Z,101166.88
2018-12-15T19:01:38.723Z,101168.81
2018-12-15T19:04:20.612Z,101165.31
2018-12-15T19:06:59.191Z,101162.34
2018-12-15T19:09:32.527Z,101165.23
2018-12-15T19:12:16.255Z,101156.38
2018-12-15T19:15:02.733Z,101156.36
2018-12-15T19:17:36.027Z,101152.36
2018-12-15T19:20:09.378Z,101141.84
2018-12-15T19:22:55.579Z,101137.78
2018-12-15T19:25:34.717Z,101137.33
2018-12-15T19:28:19.375Z,101128.33
2018-12-15T19:30:51.317Z,101123.17
2018-12-15T19:33:36.634Z,101124.24
2018-12-15T19:36:08.398Z,101120.58
2018-12-15T19:38:41.875Z,101114.41
2018-12-15T19:41:13.970Z,101112.63
2018-12-15T19:43:44.841Z,101117.42
2018-12-15T19:46:20.496Z,101121.61
2018-12-15T19:48:50.493Z,101126.47
2018-12-15T19:51:29.328Z,101113.50
2018-12-15T19:54:01.869Z,101110.23
2018-12-15T19:56:48.598Z,101109.09
2018-12-15T19:59:27.895Z,101101.56
2018-12-15T20:01:58.395Z,101099.19
2018-12-15T20:04:42.466Z,101095.03
2018-12-15T20:10:06.706Z,101085.92
2018-12-15T20:12:48.973Z,101079.64
2018-12-15T20:15:20.063Z,101084.06
2018-12-15T20:18:19.616Z,101075.73
2018-12-15T20:21:03.258Z,101081.03
2018-12-15T20:23:39.680Z,101080.88
2018-12-15T20:26:16.582Z,101076.61
2018-12-15T20:28:51.799Z,101070.13
2018-12-15T20:31:29.796Z,101075.39
2018-12-15T20:34:14.445Z,101066.54
2018-12-15T20:36:54.667Z,101065.47
2018-12-15T20:39:40.023Z,101058.59
2018-12-15T20:42:17.187Z,101068.84
2018-12-15T20:44:50.092Z,101068.04
2018-12-15T20:47:31.929Z,101062.34
2018-12-15T20:50:19.588Z,101054.77
2018-12-15T20:53:10.556Z,101053.87
2018-12-15T20:55:58.358Z,101051.30
2018-12-15T20:58:30.021Z,101052.20
2018-12-15T21:01:07.111Z,101041.96
2018-12-15T21:04:03.475Z,101039.11
2018-12-15T21:07:05.818Z,101035.12
2018-12-15T21:13:07.367Z,101020.12
2018-12-15T21:16:30.337Z,101018.44
2018-12-15T21:19:20.702Z,101016.48
2018-12-15T21:22:21.421Z,101017.06
2018-12-15T21:28:28.839Z,101014.94
2018-12-15T21:31:14.634Z,101015.14
2018-12-15T21:34:07.562Z,100999.47
2018-12-15T21:37:00.550Z,100991.95
2018-12-15T21:39:59.849Z,101000.44
2018-12-15T21:42:52.497Z,101001.36
2018-12-15T21:45:35.550Z,100990.94
2018-12-15T21:48:18.579Z,100978.40
2018-12-15T21:51:13.587Z,100974.05
2018-12-15T21:54:08.334Z,100967.20
2018-12-15T21:59:33.935Z,100952.26
2018-12-15T22:02:15.182Z,100948.39
2018-12-15T22:04:50.083Z,100947.97
2018-12-15T22:07:48.202Z,100942.70
2018-12-15T22:10:47.291Z,100939.28
2018-12-15T22:13:56.088Z,100933.56
2018-12-15T22:16:37.770Z,100925.00
2018-12-15T22:19:12.190Z,100922.72
2018-12-15T22:22:08.462Z,100911.77
2018-12-15T22:24:58.624Z,100903.16
2018-12-15T22:27:43.851Z,100898.67
2018-12-15T22:30:31.103Z,100897.66
2018-12-15T22:33:18.022Z,100899.34
2018-12-15T22:35:49.781Z,100890.22
2018-12-15T22:41:14.593Z,100887.46
2018-12-15T22:44:00.776Z,100880.95
2018-12-15T22:46:56.302Z,100876.09
2018-12-15T22:49:31.601Z,100878.08
2018-12-15T22:52:24.959Z,100874.99
2018-12-15T22:55:01.893Z,100865.48
2018-12-15T22:57:35.209Z,100870.70
2018-12-15T23:00:15.199Z,100869.66
2018-12-15T23:02:51.420Z,100863.81
2018-12-15T23:05:21.161Z,100860.52
2018-12-15T23:08:03.754Z,100853.23
2018-12-15T23:10:37.672Z,100852.18
2018-12-15T23:13:22.024Z,100854.13
2018-12-15T23:16:01.476Z,100850.66
2018-12-15T23:18:42.184Z,100844.50
2018-12-15T23:21:15.134Z,100847.81
2018-12-15T23:24:03.786Z,100846.10
2018-12-15T23:26:37.687Z,100839.80
2018-12-15T23:29:12.341Z,100836.13
2018-12-15T23:31:52.553Z,100824.56
2018-12-15T23:34:26.869Z,100826.42
2018-12-15T23:37:16.730Z,100832.50
2018-12-15T23:42:30.697Z,100810.30
2018-12-15T23:47:57.591Z,100804.89
2018-12-15T23:50:34.958Z,100799.80
2018-12-15T23:53:16.861Z,100799.83
2018-12-15T23:58:46.295Z,100775.13
